Time,TemperatureF,DewpointF,PressureIn,WindDirection,WindDirectionDegrees,WindSpeedMPH,WindSpeedGustMPH,Humidity,HourlyPrecipIn,Conditions,Clouds,dailyrainin,SoftwareType,DateUTC
2013-03-29 00:00:00,30.5,24.1,30.30,WNW,288,0.0,2.0,77,0.00,,,0.00,Wunderground v.1.15,2013-03-29 04:00:00,
2013-03-29 00:02:00,30.4,24.1,30.31,WNW,288,0.0,2.0,77,0.00,,,0.00,Wunderground v.1.15,2013-03-29 04:02:00,
2013-03-29 00:04:00,30.2,23.9,30.30,WNW,288,0.0,2.0,77,0.00,,,0.00,Wunderground v.1.15,2013-03-29 04:04:00,
2013-03-29 00:09:00,29.9,23.9,30.30,WNW,288,0.0,2.0,78,0.00,,,0.00,Wunderground v.1.15,2013-03-29 04:09:00,
2013-03-29 00:14:00,29.7,24.0,30.30,WNW,288,0.0,2.0,79,0.00,,,0.00,Wunderground v.1.15,2013-03-29 04:14:00,
2013-03-29 00:20:00,29.4,23.7,30.30,WNW,288,0.0,2.0,79,0.00,,,0.00,Wunderground v.1.15,2013-03-29 04:20:00,
2013-03-29 00:25:00,29.2,23.8,30.31,WNW,288,0.0,2.0,80,0.00,,,0.00,Wunderground v.1.15,2013-03-29 04:25:00,
2013-03-29 00:33:00,29.1,24.0,30.30,WNW,288,0.0,2.0,81,0.00,,,0.00,Wunderground v.1.15,2013-03-29 04:33:00,
2013-03-29 00:38:00,29.0,23.9,30.31,WNW,288,0.0,2.0,81,0.00,,,0.00,Wunderground v.1.15,2013-03-29 04:38:00,
2013-03-29 00:44:00,28.8,24.0,30.31,WNW,288,0.0,2.0,82,0.00,,,0.00,Wunderground v.1.15,2013-03-29 04:44:00,
2013-03-29 00:49:00,28.7,23.9,30.30,WNW,288,0.0,2.0,82,0.00,,,0.00,Wunderground v.1.15,2013-03-29 04:49:00,
2013-03-29 00:55:00,28.4,23.6,30.31,WNW,288,0.0,2.0,82,0.00,,,0.00,Wunderground v.1.15,2013-03-29 04:55:00,
2013-03-29 01:00:00,28.2,23.4,30.30,WNW,288,0.0,2.0,82,0.00,,,0.00,Wunderground v.1.15,2013-03-29 05:00:00,
2013-03-29 01:05:00,27.9,23.1,30.30,WNW,288,0.0,2.0,82,0.00,,,0.00,Wunderground v.1.15,2013-03-29 05:05:00,
2013-03-29 01:11:00,27.8,23.3,30.30,WNW,289,0.0,2.0,83,0.00,,,0.00,Wunderground v.1.15,2013-03-29 05:11:00,
2013-03-29 01:17:00,27.9,23.4,30.30,WNW,289,0.0,2.0,83,0.00,,,0.00,Wunderground v.1.15,2013-03-29 05:17:00,
2013-03-29 01:22:00,28.0,23.5,30.30,WNW,289,0.0,2.0,83,0.00,,,0.00,Wunderground v.1.15,2013-03-29 05:22:00,
2013-03-29 01:28:00,28.4,24.2,30.30,WNW,289,0.0,2.0,84,0.00,,,0.00,Wunderground v.1.15,2013-03-29 05:28:00,
2013-03-29 01:33:00,28.7,24.5,30.30,WNW,289,0.0,2.0,84,0.00,,,0.00,Wunderground v.1.15,2013-03-29 05:33:00,
2013-03-29 01:39:00,28.7,24.2,30.30,WNW,289,0.0,2.0,83,0.00,,,0.00,Wunderground v.1.15,2013-03-29 05:39:00,
2013-03-29 01:45:00,28.5,24.0,30.31,WNW,289,0.0,2.0,83,0.00,,,0.00,Wunderground v.1.15,2013-03-29 05:45:00,
2013-03-29 01:50:00,28.3,23.8,30.31,WNW,289,0.0,2.0,83,0.00,,,0.00,Wunderground v.1.15,2013-03-29 05:50:00,
2013-03-29 01:55:00,28.3,23.8,30.30,WNW,289,0.0,2.0,83,0.00,,,0.00,Wunderground v.1.15,2013-03-29 05:55:00,
2013-03-29 02:01:00,28.0,23.5,30.30,WNW,289,0.0,2.0,83,0.00,,,0.00,Wunderground v.1.15,2013-03-29 06:01:00,
2013-03-29 02:07:00,27.7,23.2,30.30,WNW,289,0.0,2.0,83,0.00,,,0.00,Wunderground v.1.15,2013-03-29 06:07:00,
2013-03-29 02:13:00,27.5,23.0,30.30,WNW,289,0.0,2.0,83,0.00,,,0.00,Wunderground v.1.15,2013-03-29 06:13:00,
2013-03-29 02:18:00,27.5,23.3,30.30,WNW,289,0.0,2.0,84,0.00,,,0.00,Wunderground v.1.15,2013-03-29 06:18:00,
2013-03-29 02:24:00,27.4,23.2,30.30,WNW,289,0.0,2.0,84,0.00,,,0.00,Wunderground v.1.15,2013-03-29 06:24:00,
2013-03-29 02:30:00,27.2,23.0,30.31,WNW,289,0.0,2.0,84,0.00,,,0.00,Wunderground v.1.15,2013-03-29 06:30:00,
2013-03-29 02:35:00,27.0,22.8,30.30,WNW,289,0.0,2.0,84,0.00,,,0.00,Wunderground v.1.15,2013-03-29 06:35:00,
2013-03-29 02:40:00,26.9,22.7,30.30,WNW,289,0.0,2.0,84,0.00,,,0.00,Wunderground v.1.15,2013-03-29 06:40:00,
2013-03-29 02:47:00,26.9,23.0,30.30,WNW,289,0.0,2.0,85,0.00,,,0.00,Wunderground v.1.15,2013-03-29 06:47:00,
2013-03-29 02:53:00,26.7,22.8,30.30,WNW,289,0.0,2.0,85,0.00,,,0.00,Wunderground v.1.15,2013-03-29 06:53:00,
2013-03-29 02:58:00,26.5,22.6,30.30,WNW,289,0.0,2.0,85,0.00,,,0.00,Wunderground v.1.15,2013-03-29 06:58:00,
2013-03-29 03:03:00,26.5,22.6,30.30,WNW,289,0.0,2.0,85,0.00,,,0.00,Wunderground v.1.15,2013-03-29 07:03:00,
2013-03-29 03:08:00,26.5,22.6,30.30,WNW,289,0.0,2.0,85,0.00,,,0.00,Wunderground v.1.15,2013-03-29 07:08:00,
2013-03-29 03:14:00,26.5,22.9,30.30,WNW,289,0.0,2.0,86,0.00,,,0.00,Wunderground v.1.15,2013-03-29 07:14:00,
2013-03-29 03:19:00,26.4,22.8,30.30,WNW,289,0.0,2.0,86,0.00,,,0.00,Wunderground v.1.15,2013-03-29 07:19:00,
2013-03-29 03:24:00,26.3,22.7,30.30,WNW,289,0.0,2.0,86,0.00,,,0.00,Wunderground v.1.15,2013-03-29 07:24:00,
2013-03-29 03:30:00,26.3,23.0,30.30,WNW,289,0.0,2.0,87,0.00,,,0.00,Wunderground v.1.15,2013-03-29 07:30:00,
2013-03-29 03:35:00,26.3,23.0,30.30,WNW,289,0.0,2.0,87,0.00,,,0.00,Wunderground v.1.15,2013-03-29 07:35:00,
2013-03-29 03:40:00,26.2,22.9,30.29,WNW,289,0.0,2.0,87,0.00,,,0.00,Wunderground v.1.15,2013-03-29 07:40:00,
2013-03-29 03:46:00,26.1,22.8,30.29,WNW,289,0.0,2.0,87,0.00,,,0.00,Wunderground v.1.15,2013-03-29 07:46:00,
2013-03-29 03:52:00,26.1,22.8,30.30,WNW,289,0.0,2.0,87,0.00,,,0.00,Wunderground v.1.15,2013-03-29 07:52:00,
2013-03-29 03:58:00,26.0,22.7,30.29,WNW,289,0.0,2.0,87,0.00,,,0.00,Wunderground v.1.15,2013-03-29 07:58:00,
2013-03-29 04:03:00,26.1,23.0,30.29,WNW,289,0.0,2.0,88,0.00,,,0.00,Wunderground v.1.15,2013-03-29 08:03:00,
2013-03-29 04:08:00,26.2,23.1,30.29,WNW,289,1.0,2.0,88,0.00,,,0.00,Wunderground v.1.15,2013-03-29 08:08:00,
2013-03-29 04:14:00,26.3,23.2,30.29,WNW,289,0.0,2.0,88,0.00,,,0.00,Wunderground v.1.15,2013-03-29 08:14:00,
2013-03-29 04:20:00,26.3,23.2,30.29,WNW,289,0.0,2.0,88,0.00,,,0.00,Wunderground v.1.15,2013-03-29 08:20:00,
2013-03-29 04:25:00,26.2,23.1,30.29,WNW,289,0.0,2.0,88,0.00,,,0.00,Wunderground v.1.15,2013-03-29 08:25:00,
2013-03-29 04:32:00,26.1,23.0,30.29,WNW,289,0.0,2.0,88,0.00,,,0.00,Wunderground v.1.15,2013-03-29 08:32:00,
2013-03-29 04:38:00,25.9,22.8,30.29,WNW,289,0.0,2.0,88,0.00,,,0.00,Wunderground v.1.15,2013-03-29 08:38:00,
2013-03-29 04:44:00,25.7,22.6,30.29,WNW,289,0.0,2.0,88,0.00,,,0.00,Wunderground v.1.15,2013-03-29 08:44:00,
2013-03-29 04:49:00,25.6,22.5,30.29,WNW,289,0.0,2.0,88,0.00,,,0.00,Wunderground v.1.15,2013-03-29 08:49:00,
2013-03-29 04:54:00,25.5,22.4,30.29,WNW,289,0.0,2.0,88,0.00,,,0.00,Wunderground v.1.15,2013-03-29 08:54:00,
2013-03-29 05:00:00,25.4,22.3,30.29,WNW,289,0.0,2.0,88,0.00,,,0.00,Wunderground v.1.15,2013-03-29 09:00:00,
2013-03-29 05:05:00,25.3,22.2,30.29,WNW,289,0.0,2.0,88,0.00,,,0.00,Wunderground v.1.15,2013-03-29 09:05:00,
2013-03-29 05:10:00,25.7,22.9,30.29,WNW,289,0.0,2.0,89,0.00,,,0.00,Wunderground v.1.15,2013-03-29 09:10:00,
2013-03-29 05:16:00,26.5,23.7,30.29,WNW,289,0.0,2.0,89,0.00,,,0.00,Wunderground v.1.15,2013-03-29 09:16:00,
2013-03-29 05:22:00,27.0,24.2,30.29,WNW,289,0.0,2.0,89,0.00,,,0.00,Wunderground v.1.15,2013-03-29 09:22:00,
2013-03-29 05:28:00,27.0,23.9,30.29,WNW,289,0.0,2.0,88,0.00,,,0.00,Wunderground v.1.15,2013-03-29 09:28:00,
2013-03-29 05:33:00,26.9,23.8,30.29,WNW,289,0.0,2.0,88,0.00,,,0.00,Wunderground v.1.15,2013-03-29 09:33:00,
2013-03-29 05:38:00,26.7,23.4,30.29,WNW,289,0.0,2.0,87,0.00,,,0.00,Wunderground v.1.15,2013-03-29 09:38:00,
2013-03-29 05:44:00,26.7,23.6,30.29,WNW,285,0.0,2.0,88,0.00,,,0.00,Wunderground v.1.15,2013-03-29 09:44:00,
2013-03-29 05:49:00,27.0,23.9,30.29,WNW,285,1.0,2.0,88,0.00,,,0.00,Wunderground v.1.15,2013-03-29 09:49:00,
2013-03-29 05:54:00,27.2,24.1,30.29,WNW,285,0.0,2.0,88,0.00,,,0.00,Wunderground v.1.15,2013-03-29 09:54:00,
2013-03-29 06:00:00,27.3,24.2,30.29,West,275,0.0,2.0,88,0.00,,,0.00,Wunderground v.1.15,2013-03-29 10:00:00,
2013-03-29 06:05:00,27.6,24.5,30.29,West,271,0.0,2.0,88,0.00,,,0.00,Wunderground v.1.15,2013-03-29 10:05:00,
2013-03-29 06:10:00,27.8,24.4,30.29,West,267,1.0,1.0,87,0.00,,,0.00,Wunderground v.1.15,2013-03-29 10:10:00,
2013-03-29 06:16:00,27.7,24.3,30.29,West,267,0.0,2.0,87,0.00,,,0.00,Wunderground v.1.15,2013-03-29 10:16:00,
2013-03-29 06:22:00,27.5,24.1,30.29,West,267,0.0,2.0,87,0.00,,,0.00,Wunderground v.1.15,2013-03-29 10:22:00,
2013-03-29 06:28:00,27.3,23.9,30.29,West,267,0.0,2.0,87,0.00,,,0.00,Wunderground v.1.15,2013-03-29 10:28:00,
2013-03-29 06:33:00,27.1,23.7,30.29,West,267,0.0,2.0,87,0.00,,,0.00,Wunderground v.1.15,2013-03-29 10:33:00,
2013-03-29 06:39:00,26.7,23.1,30.29,West,267,0.0,2.0,86,0.00,,,0.00,Wunderground v.1.15,2013-03-29 10:39:00,
2013-03-29 06:44:00,26.5,23.2,30.29,West,267,0.0,2.0,87,0.00,,,0.00,Wunderground v.1.15,2013-03-29 10:44:00,
2013-03-29 06:49:00,26.2,22.9,30.29,West,267,0.0,2.0,87,0.00,,,0.00,Wunderground v.1.15,2013-03-29 10:49:00,
2013-03-29 06:55:00,26.0,22.7,30.30,West,267,0.0,2.0,87,0.00,,,0.00,Wunderground v.1.15,2013-03-29 10:55:00,
2013-03-29 07:00:00,25.8,22.5,30.30,West,267,0.0,2.0,87,0.00,,,0.00,Wunderground v.1.15,2013-03-29 11:00:00,
2013-03-29 07:07:00,25.4,22.1,30.30,West,267,0.0,2.0,87,0.00,,,0.00,Wunderground v.1.15,2013-03-29 11:07:00,
2013-03-29 07:13:00,25.0,21.7,30.30,West,267,0.0,2.0,87,0.00,,,0.00,Wunderground v.1.15,2013-03-29 11:13:00,
2013-03-29 07:19:00,24.7,21.4,30.30,West,267,0.0,2.0,87,0.00,,,0.00,Wunderground v.1.15,2013-03-29 11:19:00,
2013-03-29 07:25:00,24.5,21.5,30.30,West,267,0.0,2.0,88,0.00,,,0.00,Wunderground v.1.15,2013-03-29 11:25:00,
2013-03-29 07:30:00,24.5,21.5,30.30,West,267,0.0,2.0,88,0.00,,,0.00,Wunderground v.1.15,2013-03-29 11:30:00,
2013-03-29 07:35:00,24.3,21.3,30.30,West,267,0.0,2.0,88,0.00,,,0.00,Wunderground v.1.15,2013-03-29 11:35:00,
2013-03-29 07:40:00,24.3,21.3,30.30,West,267,0.0,2.0,88,0.00,,,0.00,Wunderground v.1.15,2013-03-29 11:40:00,
2013-03-29 07:47:00,24.4,21.4,30.30,West,267,0.0,2.0,88,0.00,,,0.00,Wunderground v.1.15,2013-03-29 11:47:00,
2013-03-29 07:53:00,24.4,21.6,30.30,West,267,0.0,2.0,89,0.00,,,0.00,Wunderground v.1.15,2013-03-29 11:53:00,
2013-03-29 07:58:00,24.5,21.7,30.31,West,267,0.0,2.0,89,0.00,,,0.00,Wunderground v.1.15,2013-03-29 11:58:00,
2013-03-29 08:03:00,24.9,22.1,30.31,West,267,0.0,2.0,89,0.00,,,0.00,Wunderground v.1.15,2013-03-29 12:03:00,
2013-03-29 08:09:00,25.7,23.2,30.31,West,267,0.0,2.0,90,0.00,,,0.00,Wunderground v.1.15,2013-03-29 12:09:00,
2013-03-29 08:14:00,26.5,24.2,30.31,West,267,0.0,2.0,91,0.00,,,0.00,Wunderground v.1.15,2013-03-29 12:14:00,
2013-03-29 08:20:00,27.9,25.6,30.31,West,267,0.0,2.0,91,0.00,,,0.00,Wunderground v.1.15,2013-03-29 12:20:00,
2013-03-29 08:25:00,29.2,27.2,30.30,West,267,0.0,2.0,92,0.00,,,0.00,Wunderground v.1.15,2013-03-29 12:25:00,
2013-03-29 08:30:00,30.3,28.3,30.31,West,267,0.0,2.0,92,0.00,,,0.00,Wunderground v.1.15,2013-03-29 12:30:00,
2013-03-29 08:36:00,31.8,29.5,30.31,West,267,0.0,2.0,91,0.00,,,0.00,Wunderground v.1.15,2013-03-29 12:36:00,
2013-03-29 08:41:00,33.0,30.4,30.31,West,267,0.0,2.0,90,0.00,,,0.00,Wunderground v.1.15,2013-03-29 12:41:00,
2013-03-29 08:47:00,33.8,30.1,30.30,West,263,0.0,2.0,86,0.00,,,0.00,Wunderground v.1.15,2013-03-29 12:47:00,
2013-03-29 08:52:00,34.4,30.1,30.31,West,269,0.0,2.0,84,0.00,,,0.00,Wunderground v.1.15,2013-03-29 12:52:00,
2013-03-29 08:57:00,35.3,30.4,30.30,West,269,0.0,2.0,82,0.00,,,0.00,Wunderground v.1.15,2013-03-29 12:57:00,
2013-03-29 09:02:00,35.9,30.3,30.31,West,276,0.0,2.0,80,0.00,,,0.00,Wunderground v.1.15,2013-03-29 13:02:00,
2013-03-29 09:08:00,36.4,30.5,30.31,West,279,0.0,2.0,79,0.00,,,0.00,Wunderground v.1.15,2013-03-29 13:08:00,
2013-03-29 09:14:00,36.8,29.9,30.31,WNW,301,1.0,5.0,76,0.00,,,0.00,Wunderground v.1.15,2013-03-29 13:14:00,
2013-03-29 09:19:00,37.0,29.8,30.31,NW,310,2.0,5.0,75,0.00,,,0.00,Wunderground v.1.15,2013-03-29 13:19:00,
2013-03-29 09:25:00,37.4,30.2,30.30,WNW,303,1.0,4.0,75,0.00,,,0.00,Wunderground v.1.15,2013-03-29 13:25:00,
2013-03-29 09:32:00,38.0,30.1,30.31,WNW,298,0.0,2.0,73,0.00,,,0.00,Wunderground v.1.15,2013-03-29 13:32:00,
2013-03-29 09:37:00,38.4,30.5,30.30,NW,304,0.0,2.0,73,0.00,,,0.00,Wunderground v.1.15,2013-03-29 13:37:00,
2013-03-29 09:43:00,38.9,30.6,30.31,NW,318,1.0,2.0,72,0.00,,,0.00,Wunderground v.1.15,2013-03-29 13:43:00,
2013-03-29 09:48:00,39.1,30.5,30.31,WNW,300,1.0,2.0,71,0.00,,,0.00,Wunderground v.1.15,2013-03-29 13:48:00,
2013-03-29 09:53:00,39.0,30.0,30.31,West,275,0.0,3.0,70,0.00,,,0.00,Wunderground v.1.15,2013-03-29 13:53:00,
2013-03-29 09:59:00,38.9,30.3,30.31,West,265,0.0,3.0,71,0.00,,,0.00,Wunderground v.1.15,2013-03-29 13:59:00,
2013-03-29 10:04:00,39.0,30.4,30.31,West,266,0.0,2.0,71,0.00,,,0.00,Wunderground v.1.15,2013-03-29 14:04:00,
2013-03-29 10:09:00,39.3,30.7,30.31,WNW,295,0.0,2.0,71,0.00,,,0.00,Wunderground v.1.15,2013-03-29 14:09:00,
2013-03-29 10:15:00,40.0,30.6,30.31,WSW,248,1.0,3.0,69,0.00,,,0.00,Wunderground v.1.15,2013-03-29 14:15:00,
2013-03-29 10:20:00,40.5,31.1,30.31,WNW,303,1.0,1.0,69,0.00,,,0.00,Wunderground v.1.15,2013-03-29 14:20:00,
2013-03-29 10:25:00,41.2,31.4,30.31,West,267,0.0,2.0,68,0.00,,,0.00,Wunderground v.1.15,2013-03-29 14:25:00,
2013-03-29 10:31:00,41.8,31.3,30.31,West,271,0.0,2.0,66,0.00,,,0.00,Wunderground v.1.15,2013-03-29 14:31:00,
2013-03-29 10:36:00,42.2,31.3,30.31,West,265,0.0,2.0,65,0.00,,,0.00,Wunderground v.1.15,2013-03-29 14:36:00,
2013-03-29 10:42:00,42.1,31.2,30.31,WSW,244,0.0,4.0,65,0.00,,,0.00,Wunderground v.1.15,2013-03-29 14:42:00,
2013-03-29 10:48:00,42.2,31.3,30.31,WSW,237,1.0,5.0,65,0.00,,,0.00,Wunderground v.1.15,2013-03-29 14:48:00,
2013-03-29 10:53:00,42.4,31.1,30.31,WNW,284,1.0,3.0,64,0.00,,,0.00,Wunderground v.1.15,2013-03-29 14:53:00,
2013-03-29 10:59:00,42.8,31.1,30.31,WSW,243,1.0,4.0,63,0.00,,,0.00,Wunderground v.1.15,2013-03-29 14:59:00,
2013-03-29 11:04:00,43.2,30.6,30.31,WSW,247,1.0,3.0,61,0.00,,,0.00,Wunderground v.1.15,2013-03-29 15:04:00,
2013-03-29 11:09:00,43.5,30.1,30.31,WNW,285,2.0,5.0,59,0.00,,,0.00,Wunderground v.1.15,2013-03-29 15:09:00,
2013-03-29 11:15:00,44.3,30.9,30.31,WSW,248,1.0,3.0,59,0.00,,,0.00,Wunderground v.1.15,2013-03-29 15:15:00,
2013-03-29 11:20:00,45.2,32.1,30.31,West,268,1.0,3.0,60,0.00,,,0.00,Wunderground v.1.15,2013-03-29 15:20:00,
2013-03-29 11:25:00,45.7,31.3,30.31,West,259,2.0,3.0,57,0.00,,,0.00,Wunderground v.1.15,2013-03-29 15:25:00,
2013-03-29 11:32:00,46.3,31.4,30.31,NW,310,1.0,6.0,56,0.00,,,0.00,Wunderground v.1.15,2013-03-29 15:32:00,
2013-03-29 11:38:00,46.6,30.8,30.31,NW,306,2.0,6.0,54,0.00,,,0.00,Wunderground v.1.15,2013-03-29 15:38:00,
2013-03-29 11:43:00,46.7,29.5,30.31,West,259,2.0,6.0,51,0.00,,,0.00,Wunderground v.1.15,2013-03-29 15:43:00,
2013-03-29 11:49:00,46.6,31.3,30.30,SSE,153,2.0,6.0,55,0.00,,,0.00,Wunderground v.1.15,2013-03-29 15:49:00,
2013-03-29 11:54:00,47.3,31.5,30.31,NNW,328,2.0,5.0,54,0.00,,,0.00,Wunderground v.1.15,2013-03-29 15:54:00,
2013-03-29 12:00:00,47.9,32.0,30.30,West,267,2.0,2.0,54,0.00,,,0.00,Wunderground v.1.15,2013-03-29 16:00:00,
2013-03-29 12:05:00,47.5,30.7,30.30,West,269,3.0,10.0,52,0.00,,,0.00,Wunderground v.1.15,2013-03-29 16:05:00,
2013-03-29 12:11:00,46.9,30.2,30.30,West,267,6.0,6.0,52,0.00,,,0.00,Wunderground v.1.15,2013-03-29 16:11:00,
2013-03-29 12:17:00,47.2,31.4,30.30,SSW,210,4.0,6.0,54,0.00,,,0.00,Wunderground v.1.15,2013-03-29 16:17:00,
2013-03-29 12:22:00,47.9,32.9,30.30,WSW,239,3.0,7.0,56,0.00,,,0.00,Wunderground v.1.15,2013-03-29 16:22:00,
2013-03-29 12:28:00,48.2,32.8,30.30,SW,215,3.0,7.0,55,0.00,,,0.00,Wunderground v.1.15,2013-03-29 16:28:00,
2013-03-29 12:34:00,48.3,33.3,30.30,WNW,292,2.0,4.0,56,0.00,,,0.00,Wunderground v.1.15,2013-03-29 16:34:00,
2013-03-29 12:39:00,47.6,31.3,30.30,SW,234,3.0,13.0,53,0.00,,,0.00,Wunderground v.1.15,2013-03-29 16:39:00,
2013-03-29 12:44:00,47.4,32.5,30.30,SW,227,4.0,6.0,56,0.00,,,0.00,Wunderground v.1.15,2013-03-29 16:44:00,
2013-03-29 12:50:00,48.1,32.2,30.29,West,264,3.0,4.0,54,0.00,,,0.00,Wunderground v.1.15,2013-03-29 16:50:00,
2013-03-29 12:55:00,48.3,33.3,30.29,SW,217,4.0,6.0,56,0.00,,,0.00,Wunderground v.1.15,2013-03-29 16:55:00,
2013-03-29 13:01:00,48.2,32.3,30.29,SW,228,4.0,10.0,54,0.00,,,0.00,Wunderground v.1.15,2013-03-29 17:01:00,
2013-03-29 13:06:00,48.3,31.9,30.29,WNW,294,3.0,10.0,53,0.00,,,0.00,Wunderground v.1.15,2013-03-29 17:06:00,
2013-03-29 13:12:00,48.3,31.0,30.28,West,267,2.0,3.0,51,0.00,,,0.00,Wunderground v.1.15,2013-03-29 17:12:00,
2013-03-29 13:17:00,48.6,31.8,30.28,WNW,291,4.0,10.0,52,0.00,,,0.00,Wunderground v.1.15,2013-03-29 17:17:00,
2013-03-29 13:23:00,48.5,31.7,30.28,WSW,237,6.0,10.0,52,0.00,,,0.00,Wunderground v.1.15,2013-03-29 17:23:00,
2013-03-29 13:28:00,48.8,33.8,30.27,West,264,4.0,10.0,56,0.00,,,0.00,Wunderground v.1.15,2013-03-29 17:28:00,
2013-03-29 13:34:00,48.8,31.0,30.27,SW,221,4.0,7.0,50,0.00,,,0.00,Wunderground v.1.15,2013-03-29 17:34:00,
2013-03-29 13:39:00,48.8,32.9,30.27,NW,321,3.0,7.0,54,0.00,,,0.00,Wunderground v.1.15,2013-03-29 17:39:00,
2013-03-29 13:44:00,49.2,31.3,30.27,SW,229,1.0,2.0,50,0.00,,,0.00,Wunderground v.1.15,2013-03-29 17:44:00,
2013-03-29 13:49:00,49.6,32.7,30.26,WSW,237,0.0,3.0,52,0.00,,,0.00,Wunderground v.1.15,2013-03-29 17:49:00,
2013-03-29 13:55:00,50.0,33.1,30.26,West,273,3.0,9.0,52,0.00,,,0.00,Wunderground v.1.15,2013-03-29 17:55:00,
2013-03-29 14:00:00,50.9,32.4,30.26,WSW,248,6.0,7.0,49,0.00,,,0.00,Wunderground v.1.15,2013-03-29 18:00:00,
2013-03-29 14:06:00,51.2,31.6,30.26,SW,224,6.0,9.0,47,0.00,,,0.00,Wunderground v.1.15,2013-03-29 18:06:00,
2013-03-29 14:12:00,51.4,31.8,30.25,SW,217,2.0,5.0,47,0.00,,,0.00,Wunderground v.1.15,2013-03-29 18:12:00,
2013-03-29 14:17:00,50.8,31.3,30.25,WSW,246,5.0,19.0,47,0.00,,,0.00,Wunderground v.1.15,2013-03-29 18:17:00,
2013-03-29 14:23:00,50.6,31.1,30.25,NNW,336,7.0,9.0,47,0.00,,,0.00,Wunderground v.1.15,2013-03-29 18:23:00,
2013-03-29 14:28:00,50.9,32.4,30.25,WSW,256,6.0,12.0,49,0.00,,,0.00,Wunderground v.1.15,2013-03-29 18:28:00,
2013-03-29 14:34:00,51.6,32.5,30.25,WSW,237,6.0,11.0,48,0.00,,,0.00,Wunderground v.1.15,2013-03-29 18:34:00,
2013-03-29 14:40:00,51.4,32.9,30.24,West,271,5.0,5.0,49,0.00,,,0.00,Wunderground v.1.15,2013-03-29 18:40:00,
2013-03-29 14:45:00,51.2,31.6,30.24,West,275,6.0,13.0,47,0.00,,,0.00,Wunderground v.1.15,2013-03-29 18:45:00,
2013-03-29 14:51:00,51.9,33.3,30.24,WSW,249,9.0,10.0,49,0.00,,,0.00,Wunderground v.1.15,2013-03-29 18:51:00,
2013-03-29 14:56:00,52.1,33.0,30.24,WSW,250,7.0,10.0,48,0.00,,,0.00,Wunderground v.1.15,2013-03-29 18:56:00,
2013-03-29 15:02:00,52.1,33.0,30.24,NNW,333,4.0,10.0,48,0.00,,,0.00,Wunderground v.1.15,2013-03-29 19:02:00,
2013-03-29 15:07:00,51.4,32.3,30.24,NW,311,4.0,12.0,48,0.00,,,0.00,Wunderground v.1.15,2013-03-29 19:07:00,
2013-03-29 15:13:00,51.0,32.5,30.23,NW,311,6.0,10.0,49,0.00,,,0.00,Wunderground v.1.15,2013-03-29 19:13:00,
2013-03-29 15:18:00,50.7,32.2,30.23,West,264,6.0,10.0,49,0.00,,,0.00,Wunderground v.1.15,2013-03-29 19:18:00,
2013-03-29 15:24:00,51.1,32.1,30.23,West,259,6.0,12.0,48,0.00,,,0.00,Wunderground v.1.15,2013-03-29 19:24:00,
2013-03-29 15:29:00,51.4,32.3,30.22,West,261,6.0,13.0,48,0.00,,,0.00,Wunderground v.1.15,2013-03-29 19:29:00,
2013-03-29 15:35:00,52.2,32.0,30.22,NW,310,6.0,17.0,46,0.00,,,0.00,Wunderground v.1.15,2013-03-29 19:35:00,
2013-03-29 15:40:00,52.5,32.8,30.22,NW,321,7.0,7.0,47,0.00,,,0.00,Wunderground v.1.15,2013-03-29 19:40:00,
2013-03-29 15:47:00,51.5,31.9,30.22,West,274,6.0,8.0,47,0.00,,,0.00,Wunderground v.1.15,2013-03-29 19:47:00,
2013-03-29 15:53:00,50.6,31.6,30.22,WNW,301,4.0,14.0,48,0.00,,,0.00,Wunderground v.1.15,2013-03-29 19:53:00,
2013-03-29 15:58:00,50.2,32.3,30.22,WNW,298,6.0,14.0,50,0.00,,,0.00,Wunderground v.1.15,2013-03-29 19:58:00,
2013-03-29 16:04:00,50.2,32.3,30.22,NW,312,5.0,7.0,50,0.00,,,0.00,Wunderground v.1.15,2013-03-29 20:04:00,
2013-03-29 16:10:00,50.2,32.3,30.22,WNW,301,3.0,13.0,50,0.00,,,0.00,Wunderground v.1.15,2013-03-29 20:10:00,
2013-03-29 16:15:00,50.1,32.7,30.22,WNW,294,4.0,13.0,51,0.00,,,0.00,Wunderground v.1.15,2013-03-29 20:15:00,
2013-03-29 16:20:00,50.0,32.6,30.21,WNW,298,4.0,4.0,51,0.00,,,0.00,Wunderground v.1.15,2013-03-29 20:20:00,
2013-03-29 16:26:00,49.9,32.5,30.21,WNW,284,3.0,4.0,51,0.00,,,0.00,Wunderground v.1.15,2013-03-29 20:26:00,
2013-03-29 16:32:00,49.9,33.0,30.21,West,279,2.0,2.0,52,0.00,,,0.00,Wunderground v.1.15,2013-03-29 20:32:00,
2013-03-29 16:37:00,50.5,33.0,30.21,WSW,240,2.0,11.0,51,0.00,,,0.00,Wunderground v.1.15,2013-03-29 20:37:00,
2013-03-29 16:42:00,50.5,32.0,30.21,West,275,5.0,5.0,49,0.00,,,0.00,Wunderground v.1.15,2013-03-29 20:42:00,
2013-03-29 16:47:00,50.3,32.4,30.21,WNW,291,5.0,13.0,50,0.00,,,0.00,Wunderground v.1.15,2013-03-29 20:47:00,
2013-03-29 16:53:00,50.0,32.1,30.21,WNW,291,5.0,13.0,50,0.00,,,0.00,Wunderground v.1.15,2013-03-29 20:53:00,
2013-03-29 16:59:00,49.9,32.5,30.21,NW,305,4.0,13.0,51,0.00,,,0.00,Wunderground v.1.15,2013-03-29 20:59:00,
2013-03-29 17:04:00,49.9,31.5,30.21,WNW,301,4.0,7.0,49,0.00,,,0.00,Wunderground v.1.15,2013-03-29 21:04:00,
2013-03-29 17:09:00,49.8,32.9,30.21,WNW,295,3.0,9.0,52,0.00,,,0.00,Wunderground v.1.15,2013-03-29 21:09:00,
2013-03-29 17:15:00,49.7,31.8,30.21,WNW,289,3.0,10.0,50,0.00,,,0.00,Wunderground v.1.15,2013-03-29 21:15:00,
2013-03-29 17:20:00,49.7,32.3,30.20,NW,319,3.0,3.0,51,0.00,,,0.00,Wunderground v.1.15,2013-03-29 21:20:00,
2013-03-29 17:25:00,49.6,32.2,30.20,West,274,4.0,10.0,51,0.00,,,0.00,Wunderground v.1.15,2013-03-29 21:25:00,
2013-03-29 17:31:00,49.6,32.2,30.20,West,267,4.0,4.0,51,0.00,,,0.00,Wunderground v.1.15,2013-03-29 21:31:00,
2013-03-29 17:36:00,49.7,32.3,30.20,West,269,2.0,10.0,51,0.00,,,0.00,Wunderground v.1.15,2013-03-29 21:36:00,
2013-03-29 17:42:00,49.6,32.2,30.20,WNW,288,2.0,2.0,51,0.00,,,0.00,Wunderground v.1.15,2013-03-29 21:42:00,
2013-03-29 17:47:00,49.6,32.2,30.20,West,281,3.0,6.0,51,0.00,,,0.00,Wunderground v.1.15,2013-03-29 21:47:00,
2013-03-29 17:53:00,49.4,32.5,30.20,NW,319,3.0,13.0,52,0.00,,,0.00,Wunderground v.1.15,2013-03-29 21:53:00,
2013-03-29 17:58:00,49.2,32.3,30.20,NW,312,4.0,13.0,52,0.00,,,0.00,Wunderground v.1.15,2013-03-29 21:58:00,
2013-03-29 18:04:00,49.1,31.7,30.20,WNW,298,4.0,8.0,51,0.00,,,0.00,Wunderground v.1.15,2013-03-29 22:04:00,
2013-03-29 18:09:00,49.0,32.1,30.20,NW,322,4.0,8.0,52,0.00,,,0.00,Wunderground v.1.15,2013-03-29 22:09:00,
2013-03-29 18:15:00,49.0,32.1,30.20,WNW,289,4.0,6.0,52,0.00,,,0.00,Wunderground v.1.15,2013-03-29 22:15:00,
2013-03-29 18:20:00,49.0,32.1,30.20,NW,321,2.0,2.0,52,0.00,,,0.00,Wunderground v.1.15,2013-03-29 22:20:00,
2013-03-29 18:26:00,48.9,31.5,30.20,WNW,298,1.0,5.0,51,0.00,,,0.00,Wunderground v.1.15,2013-03-29 22:26:00,
2013-03-29 18:33:00,48.8,31.5,30.21,WNW,290,1.0,4.0,51,0.00,,,0.00,Wunderground v.1.15,2013-03-29 22:33:00,
2013-03-29 18:38:00,48.7,30.9,30.20,WNW,287,2.0,6.0,50,0.00,,,0.00,Wunderground v.1.15,2013-03-29 22:38:00,
2013-03-29 18:43:00,48.6,31.3,30.20,WNW,303,3.0,8.0,51,0.00,,,0.00,Wunderground v.1.15,2013-03-29 22:43:00,
2013-03-29 18:48:00,48.6,31.8,30.21,NW,309,2.0,8.0,52,0.00,,,0.00,Wunderground v.1.15,2013-03-29 22:48:00,
2013-03-29 18:54:00,48.6,31.3,30.21,West,281,3.0,4.0,51,0.00,,,0.00,Wunderground v.1.15,2013-03-29 22:54:00,
2013-03-29 19:00:00,48.6,31.3,30.21,WNW,294,5.0,5.0,51,0.00,,,0.00,Wunderground v.1.15,2013-03-29 23:00:00,
2013-03-29 19:05:00,48.6,31.3,30.21,West,275,4.0,7.0,51,0.00,,,0.00,Wunderground v.1.15,2013-03-29 23:05:00,
2013-03-29 19:10:00,48.6,31.3,30.21,NW,312,3.0,6.0,51,0.00,,,0.00,Wunderground v.1.15,2013-03-29 23:10:00,
2013-03-29 19:16:00,48.5,30.7,30.21,NW,319,4.0,7.0,50,0.00,,,0.00,Wunderground v.1.15,2013-03-29 23:16:00,
2013-03-29 19:22:00,48.3,31.0,30.21,West,269,4.0,7.0,51,0.00,,,0.00,Wunderground v.1.15,2013-03-29 23:22:00,
2013-03-29 19:27:00,48.2,30.4,30.21,NNW,348,4.0,7.0,50,0.00,,,0.00,Wunderground v.1.15,2013-03-29 23:27:00,
2013-03-29 19:32:00,48.1,30.8,30.21,WNW,295,4.0,5.0,51,0.00,,,0.00,Wunderground v.1.15,2013-03-29 23:32:00,
2013-03-29 19:37:00,47.9,30.6,30.21,NW,318,3.0,5.0,51,0.00,,,0.00,Wunderground v.1.15,2013-03-29 23:37:00,
2013-03-29 19:43:00,47.7,30.4,30.21,NW,320,3.0,5.0,51,0.00,,,0.00,Wunderground v.1.15,2013-03-29 23:43:00,
2013-03-29 19:49:00,47.3,30.5,30.21,NW,311,3.0,7.0,52,0.00,,,0.00,Wunderground v.1.15,2013-03-29 23:49:00,
2013-03-29 19:54:00,47.0,30.3,30.21,NW,311,3.0,5.0,52,0.00,,,0.00,Wunderground v.1.15,2013-03-29 23:54:00,
2013-03-29 20:00:00,46.7,30.0,30.21,NW,314,3.0,3.0,52,0.00,,,0.00,Wunderground v.1.15,2013-03-30 00:00:00,
2013-03-29 20:05:00,46.4,30.2,30.21,NW,309,2.0,3.0,53,0.00,,,0.00,Wunderground v.1.15,2013-03-30 00:05:00,
2013-03-29 20:11:00,45.9,30.2,30.21,NW,321,1.0,3.0,54,0.00,,,0.00,Wunderground v.1.15,2013-03-30 00:11:00,
2013-03-29 20:17:00,45.3,30.1,30.21,NW,325,1.0,3.0,55,0.00,,,0.00,Wunderground v.1.15,2013-03-30 00:17:00,
2013-03-29 20:22:00,44.8,29.6,30.21,NW,325,0.0,2.0,55,0.00,,,0.00,Wunderground v.1.15,2013-03-30 00:22:00,
2013-03-29 20:28:00,44.1,29.4,30.21,NW,325,0.0,2.0,56,0.00,,,0.00,Wunderground v.1.15,2013-03-30 00:28:00,
2013-03-29 20:34:00,43.4,29.6,30.21,NW,323,0.0,2.0,58,0.00,,,0.00,Wunderground v.1.15,2013-03-30 00:34:00,
2013-03-29 20:40:00,42.8,29.5,30.21,NW,324,0.0,2.0,59,0.00,,,0.00,Wunderground v.1.15,2013-03-30 00:40:00,
2013-03-29 20:46:00,42.4,29.5,30.22,NW,315,1.0,2.0,60,0.00,,,0.00,Wunderground v.1.15,2013-03-30 00:46:00,
2013-03-29 20:51:00,42.3,29.4,30.22,NW,318,1.0,2.0,60,0.00,,,0.00,Wunderground v.1.15,2013-03-30 00:51:00,
2013-03-29 20:57:00,42.4,29.9,30.22,NW,317,1.0,3.0,61,0.00,,,0.00,Wunderground v.1.15,2013-03-30 00:57:00,
2013-03-29 21:03:00,42.5,30.0,30.22,NW,321,1.0,3.0,61,0.00,,,0.00,Wunderground v.1.15,2013-03-30 01:03:00,
2013-03-29 21:08:00,42.4,29.9,30.22,NW,321,0.0,3.0,61,0.00,,,0.00,Wunderground v.1.15,2013-03-30 01:08:00,
2013-03-29 21:13:00,42.0,29.5,30.22,NW,321,0.0,2.0,61,0.00,,,0.00,Wunderground v.1.15,2013-03-30 01:13:00,
2013-03-29 21:19:00,41.5,29.4,30.22,NW,321,0.0,2.0,62,0.00,,,0.00,Wunderground v.1.15,2013-03-30 01:19:00,
2013-03-29 21:25:00,40.7,29.1,30.23,NW,321,0.0,2.0,63,0.00,,,0.00,Wunderground v.1.15,2013-03-30 01:25:00,
2013-03-29 21:30:00,40.2,29.0,30.23,NW,321,0.0,2.0,64,0.00,,,0.00,Wunderground v.1.15,2013-03-30 01:30:00,
2013-03-29 21:35:00,39.6,28.8,30.23,NW,321,0.0,2.0,65,0.00,,,0.00,Wunderground v.1.15,2013-03-30 01:35:00,
2013-03-29 21:40:00,39.2,28.8,30.23,NW,321,0.0,2.0,66,0.00,,,0.00,Wunderground v.1.15,2013-03-30 01:40:00,
2013-03-29 21:46:00,38.7,28.7,30.23,NW,321,0.0,2.0,67,0.00,,,0.00,Wunderground v.1.15,2013-03-30 01:46:00,
2013-03-29 21:51:00,38.2,28.2,30.23,NW,321,0.0,2.0,67,0.00,,,0.00,Wunderground v.1.15,2013-03-30 01:51:00,
2013-03-29 21:57:00,37.5,27.9,30.23,NW,321,0.0,2.0,68,0.00,,,0.00,Wunderground v.1.15,2013-03-30 01:57:00,
2013-03-29 22:02:00,37.0,27.8,30.24,NW,321,0.0,2.0,69,0.00,,,0.00,Wunderground v.1.15,2013-03-30 02:02:00,
2013-03-29 22:08:00,36.5,28.0,30.24,NW,321,0.0,2.0,71,0.00,,,0.00,Wunderground v.1.15,2013-03-30 02:08:00,
2013-03-29 22:13:00,36.1,27.9,30.24,NW,321,0.0,2.0,72,0.00,,,0.00,Wunderground v.1.15,2013-03-30 02:13:00,
2013-03-29 22:19:00,35.7,27.6,30.24,NW,321,0.0,2.0,72,0.00,,,0.00,Wunderground v.1.15,2013-03-30 02:19:00,
2013-03-29 22:24:00,35.2,27.1,30.24,NW,321,0.0,2.0,72,0.00,,,0.00,Wunderground v.1.15,2013-03-30 02:24:00,
2013-03-29 22:30:00,34.7,27.3,30.24,NW,321,0.0,2.0,74,0.00,,,0.00,Wunderground v.1.15,2013-03-30 02:30:00,
2013-03-29 22:35:00,34.4,27.0,30.24,NW,321,0.0,2.0,74,0.00,,,0.00,Wunderground v.1.15,2013-03-30 02:35:00,
2013-03-29 22:40:00,34.1,27.3,30.24,NW,321,0.0,2.0,76,0.00,,,0.00,Wunderground v.1.15,2013-03-30 02:40:00,
2013-03-29 22:45:00,33.7,26.9,30.24,NW,321,0.0,2.0,76,0.00,,,0.00,Wunderground v.1.15,2013-03-30 02:45:00,
2013-03-29 22:51:00,33.4,26.6,30.24,NW,321,0.0,2.0,76,0.00,,,0.00,Wunderground v.1.15,2013-03-30 02:51:00,
2013-03-29 22:56:00,33.2,27.1,30.24,NW,321,0.0,2.0,78,0.00,,,0.00,Wunderground v.1.15,2013-03-30 02:56:00,
2013-03-29 23:02:00,33.0,26.9,30.24,NW,321,0.0,2.0,78,0.00,,,0.00,Wunderground v.1.15,2013-03-30 03:02:00,
2013-03-29 23:07:00,33.1,27.3,30.24,NW,321,0.0,2.0,79,0.00,,,0.00,Wunderground v.1.15,2013-03-30 03:07:00,
2013-03-29 23:13:00,32.9,27.4,30.24,NW,321,0.0,2.0,80,0.00,,,0.00,Wunderground v.1.15,2013-03-30 03:13:00,
2013-03-29 23:18:00,32.9,27.4,30.24,NW,321,0.0,2.0,80,0.00,,,0.00,Wunderground v.1.15,2013-03-30 03:18:00,
2013-03-29 23:24:00,32.9,27.7,30.24,NW,321,0.0,2.0,81,0.00,,,0.00,Wunderground v.1.15,2013-03-30 03:24:00,
2013-03-29 23:29:00,33.0,27.8,30.24,NW,321,0.0,2.0,81,0.00,,,0.00,Wunderground v.1.15,2013-03-30 03:29:00,
2013-03-29 23:35:00,33.3,28.1,30.24,NW,321,0.0,2.0,81,0.00,,,0.00,Wunderground v.1.15,2013-03-30 03:35:00,
2013-03-29 23:40:00,33.2,28.0,30.24,NW,321,0.0,2.0,81,0.00,,,0.00,Wunderground v.1.15,2013-03-30 03:40:00,
2013-03-29 23:46:00,32.9,27.7,30.24,NW,321,0.0,2.0,81,0.00,,,0.00,Wunderground v.1.15,2013-03-30 03:46:00,
2013-03-29 23:52:00,32.5,27.3,30.24,NW,321,0.0,2.0,81,0.00,,,0.00,Wunderground v.1.15,2013-03-30 03:52:00,
2013-03-29 23:58:00,32.1,26.9,30.24,NW,321,0.0,2.0,81,0.00,,,0.00,Wunderground v.1.15,2013-03-30 03:58:00,